Terminal Aerodrome Forecast
Issued by NWS Buffalo, NY

Home | Current Version | Previous Version | Text Only | Print | Product List | Glossary On
Versions: 1 2 3 4 5 6 7 8 9 10 11 12 13 14 15 16 17 18 19 20 21 22 23 24 25
000
FTUS41 KBUF 280500
TAFROC
TAF
KROC 280531Z 2806/2906 35006KT 2SM +TSRA BR SCT011 SCT022CB OVC029
     FM280800 02011KT 2SM +RA BKN012 OVC040
     FM281700 34015G21KT 6SM -SHRA BKN035 OVC040
     FM281800 34014G20KT P6SM VCSH OVC040
     FM282000 31013G19KT P6SM BKN050
     FM290100 29009KT P6SM BKN040=

USA.gov is the U.S. government's official web portal to all federal, state and local government web resources and services.